createdAt,value
2022-10-01T00:00:12.526Z,1006.30
2022-10-01T00:01:12.570Z,1006.30
2022-10-01T00:02:12.509Z,1006.30
2022-10-01T00:03:12.560Z,1006.30
2022-10-01T00:04:12.489Z,1006.31
2022-10-01T00:05:12.464Z,1006.28
2022-10-01T00:06:12.460Z,1006.27
2022-10-01T00:07:12.459Z,1006.26
2022-10-01T00:08:12.466Z,1006.25
2022-10-01T00:09:12.429Z,1006.23
2022-10-01T00:10:12.433Z,1006.23
2022-10-01T00:11:12.417Z,1006.22
2022-10-01T00:12:12.412Z,1006.21
2022-10-01T00:13:12.381Z,1006.19
2022-10-01T00:14:12.413Z,1006.18
2022-10-01T00:15:13.533Z,1006.18
2022-10-01T00:16:12.392Z,1006.19
2022-10-01T00:17:12.360Z,1006.18
2022-10-01T00:18:12.338Z,1006.17
2022-10-01T00:19:12.319Z,1006.16
2022-10-01T00:20:14.711Z,1006.15
2022-10-01T00:21:12.318Z,1006.13
2022-10-01T00:22:12.303Z,1006.13
2022-10-01T00:23:12.294Z,1006.12
2022-10-01T00:24:12.278Z,1006.12
2022-10-01T00:25:12.266Z,1006.13
2022-10-01T00:26:12.268Z,1006.12
2022-10-01T00:27:12.239Z,1006.12
2022-10-01T00:28:12.288Z,1006.11
2022-10-01T00:29:12.223Z,1006.10
2022-10-01T00:30:12.214Z,1006.09
2022-10-01T00:31:12.281Z,1006.09
2022-10-01T00:32:12.221Z,1006.08
2022-10-01T00:33:12.186Z,1006.07
2022-10-01T00:34:12.172Z,1006.06
2022-10-01T00:35:12.172Z,1006.06
2022-10-01T00:36:12.192Z,1006.06
2022-10-01T00:37:12.136Z,1006.07
2022-10-01T00:38:12.140Z,1006.08
2022-10-01T00:39:12.131Z,1006.05
2022-10-01T00:40:12.122Z,1006.04
2022-10-01T00:41:12.104Z,1006.05
2022-10-01T00:42:12.112Z,1006.03
2022-10-01T00:43:12.074Z,1006.01
2022-10-01T00:44:12.066Z,1005.99
2022-10-01T00:45:12.052Z,1005.98
2022-10-01T00:46:12.099Z,1005.97
2022-10-01T00:47:12.033Z,1005.97
2022-10-01T00:48:12.059Z,1005.97
2022-10-01T00:49:12.037Z,1005.97
2022-10-01T00:50:12.045Z,1005.96
2022-10-01T00:51:12.004Z,1005.96
2022-10-01T00:52:12.000Z,1005.95
2022-10-01T00:53:11.973Z,1005.96
2022-10-01T00:54:11.981Z,1005.96
2022-10-01T00:55:11.972Z,1005.94
2022-10-01T00:56:11.965Z,1005.93
2022-10-01T00:57:11.993Z,1005.92
2022-10-01T00:58:11.962Z,1005.91
2022-10-01T00:59:11.981Z,1005.91
2022-10-01T01:00:11.930Z,1005.89
2022-10-01T01:01:11.964Z,1005.89
2022-10-01T01:02:12.003Z,1005.89
2022-10-01T01:03:11.877Z,1005.89
2022-10-01T01:04:11.871Z,1005.89
2022-10-01T01:05:11.870Z,1005.88
2022-10-01T01:06:11.860Z,1005.86
2022-10-01T01:07:11.838Z,1005.85
2022-10-01T01:08:11.823Z,1005.85
2022-10-01T01:09:11.901Z,1005.84
2022-10-01T01:10:11.809Z,1005.83
2022-10-01T01:11:11.848Z,1005.84
2022-10-01T01:12:11.789Z,1005.82
2022-10-01T01:13:11.817Z,1005.82
2022-10-01T01:14:11.825Z,1005.81
2022-10-01T01:15:11.746Z,1005.81
2022-10-01T01:16:11.795Z,1005.80
2022-10-01T01:17:11.732Z,1005.80
2022-10-01T01:18:11.718Z,1005.80
2022-10-01T01:19:11.706Z,1005.80
2022-10-01T01:20:11.711Z,1005.80
2022-10-01T01:21:11.712Z,1005.80
2022-10-01T01:22:11.676Z,1005.81
2022-10-01T01:23:11.667Z,1005.79
2022-10-01T01:24:11.658Z,1005.79
2022-10-01T01:25:11.696Z,1005.80
2022-10-01T01:26:11.706Z,1005.81
2022-10-01T01:27:11.622Z,1005.81
2022-10-01T01:28:11.676Z,1005.81
2022-10-01T01:29:11.602Z,1005.80
2022-10-01T01:30:11.597Z,1005.80
2022-10-01T01:31:11.701Z,1005.77
2022-10-01T01:32:14.800Z,1005.76
2022-10-01T01:33:11.585Z,1005.74
2022-10-01T01:34:11.597Z,1005.72
2022-10-01T01:35:11.580Z,1005.72
2022-10-01T01:36:11.546Z,1005.70
2022-10-01T01:37:11.531Z,1005.70
2022-10-01T01:38:11.508Z,1005.70
2022-10-01T01:39:11.502Z,1005.70
2022-10-01T01:40:11.499Z,1005.70
2022-10-01T01:41:11.510Z,1005.68
2022-10-01T01:42:11.477Z,1005.65
2022-10-01T01:43:11.460Z,1005.62
2022-10-01T01:44:11.452Z,1005.58
2022-10-01T01:45:11.470Z,1005.55
2022-10-01T01:46:11.528Z,1005.54
2022-10-01T01:47:11.475Z,1005.54
2022-10-01T01:48:11.418Z,1005.53
2022-10-01T01:49:11.415Z,1005.52
2022-10-01T01:50:11.451Z,1005.52
2022-10-01T01:51:11.464Z,1005.51
2022-10-01T01:52:11.367Z,1005.52
2022-10-01T01:53:11.415Z,1005.52
2022-10-01T01:54:11.419Z,1005.52
2022-10-01T01:55:11.423Z,1005.50
2022-10-01T01:56:11.397Z,1005.48
2022-10-01T01:57:11.314Z,1005.48
2022-10-01T01:58:11.405Z,1005.47
2022-10-01T01:59:11.302Z,1005.46
2022-10-01T02:00:11.287Z,1005.45
2022-10-01T02:01:11.395Z,1005.45
2022-10-01T02:02:11.449Z,1005.45
2022-10-01T02:03:11.252Z,1005.45
2022-10-01T02:04:11.243Z,1005.43
2022-10-01T02:05:11.252Z,1005.42
2022-10-01T02:06:11.278Z,1005.42
2022-10-01T02:07:11.216Z,1005.42
2022-10-01T02:08:11.245Z,1005.43
2022-10-01T02:09:11.190Z,1005.46
2022-10-01T02:10:11.197Z,1005.46
2022-10-01T02:11:11.177Z,1005.47
2022-10-01T02:12:11.181Z,1005.46
2022-10-01T02:13:11.144Z,1005.46
2022-10-01T02:14:11.179Z,1005.45
2022-10-01T02:15:11.126Z,1005.44
2022-10-01T02:16:11.238Z,1005.42
2022-10-01T02:17:11.107Z,1005.41
2022-10-01T02:18:11.204Z,1005.40
2022-10-01T02:19:11.135Z,1005.39
2022-10-01T02:20:11.082Z,1005.37
2022-10-01T02:21:11.088Z,1005.36
2022-10-01T02:22:11.057Z,1005.36
2022-10-01T02:23:11.075Z,1005.36
2022-10-01T02:24:11.047Z,1005.38
2022-10-01T02:25:11.077Z,1005.38
2022-10-01T02:26:11.060Z,1005.39
2022-10-01T02:27:11.004Z,1005.40
2022-10-01T02:28:11.129Z,1005.40
2022-10-01T02:29:10.980Z,1005.42
2022-10-01T02:30:11.094Z,1005.44
2022-10-01T02:31:11.055Z,1005.45
2022-10-01T02:32:11.022Z,1005.44
2022-10-01T02:33:10.965Z,1005.44
2022-10-01T02:34:12.719Z,1005.44
2022-10-01T02:35:10.947Z,1005.44
2022-10-01T02:36:10.959Z,1005.44
2022-10-01T02:37:10.951Z,1005.44
2022-10-01T02:38:10.894Z,1005.45
2022-10-01T02:39:10.879Z,1005.46
2022-10-01T02:40:10.944Z,1005.46
2022-10-01T02:41:10.958Z,1005.45
2022-10-01T02:42:10.897Z,1005.44
2022-10-01T02:43:10.837Z,1005.44
2022-10-01T02:44:10.834Z,1005.43
2022-10-01T02:45:10.832Z,1005.42
2022-10-01T02:46:10.917Z,1005.41
2022-10-01T02:47:10.799Z,1005.39
2022-10-01T02:48:10.788Z,1005.36
2022-10-01T02:49:10.781Z,1005.35
2022-10-01T02:50:10.790Z,1005.33
2022-10-01T02:51:10.765Z,1005.32
2022-10-01T02:52:10.748Z,1005.29
2022-10-01T02:53:10.742Z,1005.30
2022-10-01T02:54:10.738Z,1005.33
2022-10-01T02:55:10.739Z,1005.32
2022-10-01T02:56:10.747Z,1005.30
2022-10-01T02:57:10.742Z,1005.30
2022-10-01T02:58:10.691Z,1005.28
2022-10-01T02:59:10.681Z,1005.29
2022-10-01T03:00:10.677Z,1005.29
2022-10-01T03:01:10.805Z,1005.28
2022-10-01T03:02:10.708Z,1005.26
2022-10-01T03:03:10.687Z,1005.26
2022-10-01T03:04:10.625Z,1005.26
2022-10-01T03:05:10.630Z,1005.27
2022-10-01T03:06:10.604Z,1005.27
2022-10-01T03:07:10.598Z,1005.24
2022-10-01T03:08:16.613Z,1005.24
2022-10-01T03:09:10.577Z,1005.23
2022-10-01T03:10:10.581Z,1005.22
2022-10-01T03:11:10.556Z,1005.22
2022-10-01T03:12:10.551Z,1005.20
2022-10-01T03:13:10.542Z,1005.19
2022-10-01T03:14:10.521Z,1005.19
2022-10-01T03:15:10.555Z,1005.17
2022-10-01T03:16:10.555Z,1005.16
2022-10-01T03:17:10.504Z,1005.15
2022-10-01T03:18:10.488Z,1005.11
2022-10-01T03:19:10.469Z,1005.10
2022-10-01T03:20:10.474Z,1005.08
2022-10-01T03:21:10.452Z,1005.06
2022-10-01T03:22:10.438Z,1005.04
2022-10-01T03:23:10.438Z,1005.04
2022-10-01T03:24:10.421Z,1005.04
2022-10-01T03:25:10.431Z,1005.02
2022-10-01T03:26:10.398Z,1005.01
2022-10-01T03:27:10.394Z,1005.01
2022-10-01T03:28:10.470Z,1005.00
2022-10-01T03:29:10.375Z,1004.99
2022-10-01T03:30:10.369Z,1004.96
2022-10-01T03:31:10.507Z,1004.95
2022-10-01T03:32:10.339Z,1004.93
2022-10-01T03:33:10.326Z,1004.93
2022-10-01T03:34:10.313Z,1004.93
2022-10-01T03:35:10.322Z,1004.93
2022-10-01T03:36:10.296Z,1004.90
2022-10-01T03:37:10.285Z,1004.90
2022-10-01T03:38:10.271Z,1004.88
2022-10-01T03:39:10.261Z,1004.87
2022-10-01T03:40:10.267Z,1004.82
2022-10-01T03:41:10.247Z,1004.81
2022-10-01T03:42:10.236Z,1004.82
2022-10-01T03:43:10.224Z,1004.84
2022-10-01T03:44:10.219Z,1004.84
2022-10-01T03:45:10.237Z,1004.83
2022-10-01T03:46:10.261Z,1004.80
2022-10-01T03:47:10.187Z,1004.81
2022-10-01T03:48:10.175Z,1004.79
2022-10-01T03:49:10.187Z,1004.77
2022-10-01T03:50:10.147Z,1004.76
2022-10-01T03:51:10.142Z,1004.75
2022-10-01T03:52:10.146Z,1004.74
2022-10-01T03:53:10.121Z,1004.73
2022-10-01T03:54:10.121Z,1004.73
2022-10-01T03:55:10.108Z,1004.73
2022-10-01T03:56:10.094Z,1004.74
2022-10-01T03:57:10.080Z,1004.73
2022-10-01T03:58:10.063Z,1004.72
2022-10-01T03:59:10.074Z,1004.70
2022-10-01T04:00:10.063Z,1004.68
2022-10-01T04:01:10.044Z,1004.65
2022-10-01T04:02:10.282Z,1004.65
2022-10-01T04:03:10.061Z,1004.66
2022-10-01T04:04:10.031Z,1004.67
2022-10-01T04:05:10.010Z,1004.67
2022-10-01T04:06:10.008Z,1004.67
2022-10-01T04:07:09.983Z,1004.65
2022-10-01T04:08:09.963Z,1004.65
2022-10-01T04:09:09.969Z,1004.64
2022-10-01T04:10:09.955Z,1004.62
2022-10-01T04:11:09.940Z,1004.63
2022-10-01T04:12:09.934Z,1004.61
2022-10-01T04:13:09.924Z,1004.62
2022-10-01T04:14:09.911Z,1004.60
2022-10-01T04:15:09.928Z,1004.60
2022-10-01T04:16:09.901Z,1004.57
2022-10-01T04:17:09.880Z,1004.57
2022-10-01T04:18:09.858Z,1004.56
2022-10-01T04:19:09.889Z,1004.57
2022-10-01T04:20:09.878Z,1004.56
2022-10-01T04:21:09.840Z,1004.56
2022-10-01T04:22:09.822Z,1004.53
2022-10-01T04:23:09.843Z,1004.53
2022-10-01T04:24:09.848Z,1004.52
2022-10-01T04:25:09.792Z,1004.52
2022-10-01T04:26:09.782Z,1004.52
2022-10-01T04:27:09.770Z,1004.49
2022-10-01T04:28:09.795Z,1004.49
2022-10-01T04:29:09.779Z,1004.49
2022-10-01T04:30:09.784Z,1004.46
2022-10-01T04:31:09.752Z,1004.45
2022-10-01T04:32:09.765Z,1004.44
2022-10-01T04:33:09.718Z,1004.44
2022-10-01T04:34:09.719Z,1004.44
2022-10-01T04:35:09.688Z,1004.42
2022-10-01T04:36:09.674Z,1004.40
2022-10-01T04:37:09.682Z,1004.39
2022-10-01T04:38:09.695Z,1004.42
2022-10-01T04:39:09.663Z,1004.44
2022-10-01T04:40:09.653Z,1004.46
2022-10-01T04:41:09.630Z,1004.47
2022-10-01T04:42:09.661Z,1004.46
2022-10-01T04:43:09.612Z,1004.47
2022-10-01T04:44:09.619Z,1004.46
2022-10-01T04:45:09.639Z,1004.48
2022-10-01T04:46:09.574Z,1004.47
2022-10-01T04:47:09.564Z,1004.46
2022-10-01T04:48:09.554Z,1004.45
2022-10-01T04:49:09.503Z,1004.46
2022-10-01T04:50:09.510Z,1004.45
2022-10-01T04:51:09.516Z,1004.45
2022-10-01T04:52:09.458Z,1004.43
2022-10-01T04:53:09.484Z,1004.43
2022-10-01T04:54:09.496Z,1004.40
2022-10-01T04:55:09.435Z,1004.38
2022-10-01T04:56:09.448Z,1004.35
2022-10-01T04:57:09.414Z,1004.35
2022-10-01T04:58:09.415Z,1004.33
2022-10-01T04:59:09.400Z,1004.33
2022-10-01T05:00:09.427Z,1004.33
2022-10-01T05:01:09.424Z,1004.34
2022-10-01T05:02:09.494Z,1004.32
2022-10-01T05:03:09.388Z,1004.33
2022-10-01T05:04:09.396Z,1004.31
2022-10-01T05:05:09.357Z,1004.31
2022-10-01T05:06:09.408Z,1004.31
2022-10-01T05:07:09.300Z,1004.28
2022-10-01T05:08:09.312Z,1004.26
2022-10-01T05:09:09.294Z,1004.25
2022-10-01T05:10:09.295Z,1004.22
2022-10-01T05:11:09.283Z,1004.24
2022-10-01T05:12:09.246Z,1004.24
2022-10-01T05:13:09.306Z,1004.24
2022-10-01T05:14:09.245Z,1004.23
2022-10-01T05:15:09.224Z,1004.26
2022-10-01T05:16:09.275Z,1004.23
2022-10-01T05:17:09.198Z,1004.25
2022-10-01T05:18:09.185Z,1004.24
2022-10-01T05:19:09.224Z,1004.25
2022-10-01T05:20:09.165Z,1004.26
2022-10-01T05:21:09.164Z,1004.25
2022-10-01T05:22:09.141Z,1004.23
2022-10-01T05:23:09.169Z,1004.22
2022-10-01T05:24:09.135Z,1004.21
2022-10-01T05:25:09.117Z,1004.19
2022-10-01T05:26:09.108Z,1004.21
2022-10-01T05:27:09.116Z,1004.21
2022-10-01T05:28:09.124Z,1004.21
2022-10-01T05:29:09.091Z,1004.22
2022-10-01T05:30:09.097Z,1004.21
2022-10-01T05:31:09.240Z,1004.22
2022-10-01T05:32:09.042Z,1004.22
2022-10-01T05:33:09.034Z,1004.23
2022-10-01T05:34:09.027Z,1004.22
2022-10-01T05:35:09.044Z,1004.18
2022-10-01T05:36:09.046Z,1004.17
2022-10-01T05:37:09.002Z,1004.13
2022-10-01T05:38:08.987Z,1004.12
2022-10-01T05:39:08.984Z,1004.12
2022-10-01T05:40:08.954Z,1004.12
2022-10-01T05:41:08.950Z,1004.13
2022-10-01T05:42:08.990Z,1004.11
2022-10-01T05:43:08.982Z,1004.10
2022-10-01T05:44:08.981Z,1004.09
2022-10-01T05:45:08.923Z,1004.10
2022-10-01T05:46:08.956Z,1004.09
2022-10-01T05:47:08.889Z,1004.06
2022-10-01T05:48:08.871Z,1004.03
2022-10-01T05:49:08.906Z,1004.05
2022-10-01T05:50:08.864Z,1004.04
2022-10-01T05:51:08.880Z,1004.03
2022-10-01T05:52:08.854Z,1003.98
2022-10-01T05:53:08.830Z,1003.96
2022-10-01T05:54:08.886Z,1003.93
2022-10-01T05:55:08.804Z,1003.91
2022-10-01T05:56:08.792Z,1003.87
2022-10-01T05:57:08.791Z,1003.88
2022-10-01T05:58:08.770Z,1003.87
2022-10-01T05:59:08.876Z,1003.85
2022-10-01T06:00:08.788Z,1003.82
2022-10-01T06:01:08.788Z,1003.81
2022-10-01T06:02:08.786Z,1003.80
2022-10-01T06:03:08.887Z,1003.78
2022-10-01T06:04:08.726Z,1003.77
2022-10-01T06:05:08.705Z,1003.74
2022-10-01T06:06:08.692Z,1003.73
2022-10-01T06:07:08.680Z,1003.74
2022-10-01T06:08:08.666Z,1003.72
2022-10-01T06:09:08.673Z,1003.71
2022-10-01T06:10:08.645Z,1003.67
2022-10-01T06:11:08.673Z,1003.65
2022-10-01T06:12:08.665Z,1003.63
2022-10-01T06:13:08.623Z,1003.62
2022-10-01T06:14:08.621Z,1003.59
2022-10-01T06:15:08.598Z,1003.57
2022-10-01T06:16:08.653Z,1003.59
2022-10-01T06:17:08.576Z,1003.55
2022-10-01T06:18:08.578Z,1003.58
2022-10-01T06:19:08.592Z,1003.57
2022-10-01T06:20:08.543Z,1003.52
2022-10-01T06:21:08.540Z,1003.50
2022-10-01T06:22:08.520Z,1003.48
2022-10-01T06:23:08.516Z,1003.46
2022-10-01T06:24:08.545Z,1003.47
2022-10-01T06:25:08.502Z,1003.43
2022-10-01T06:26:08.480Z,1003.40
2022-10-01T06:27:08.477Z,1003.37
2022-10-01T06:28:08.496Z,1003.37
2022-10-01T06:29:08.477Z,1003.37
2022-10-01T06:30:08.472Z,1003.35
2022-10-01T06:31:08.442Z,1003.31
2022-10-01T06:32:08.456Z,1003.34
2022-10-01T06:33:08.419Z,1003.36
2022-10-01T06:34:08.420Z,1003.34
2022-10-01T06:35:08.403Z,1003.32
2022-10-01T06:36:08.389Z,1003.33
2022-10-01T06:37:08.381Z,1003.32
2022-10-01T06:38:08.356Z,1003.32
2022-10-01T06:39:08.367Z,1003.35
2022-10-01T06:40:08.333Z,1003.30
2022-10-01T06:41:08.334Z,1003.33
2022-10-01T06:42:08.329Z,1003.31
2022-10-01T06:43:08.379Z,1003.31
2022-10-01T06:44:08.318Z,1003.32
2022-10-01T06:45:08.292Z,1003.27
2022-10-01T06:46:08.381Z,1003.28
2022-10-01T06:47:08.281Z,1003.24
2022-10-01T06:48:08.397Z,1003.24
2022-10-01T06:49:08.258Z,1003.26
2022-10-01T06:50:08.232Z,1003.24
2022-10-01T06:51:08.234Z,1003.24
2022-10-01T06:52:08.217Z,1003.25
2022-10-01T06:53:08.206Z,1003.27
2022-10-01T06:54:08.210Z,1003.28
2022-10-01T06:55:08.190Z,1003.27
2022-10-01T06:56:08.175Z,1003.28
2022-10-01T06:57:08.162Z,1003.23
2022-10-01T06:58:08.163Z,1003.20
2022-10-01T06:59:08.151Z,1003.23
2022-10-01T07:00:08.149Z,1003.20
2022-10-01T07:01:08.197Z,1003.17
2022-10-01T07:02:08.140Z,1003.18
2022-10-01T07:03:08.117Z,1003.15
2022-10-01T07:04:08.107Z,1003.12
2022-10-01T07:05:08.083Z,1003.10
2022-10-01T07:06:08.096Z,1003.06
2022-10-01T07:07:08.106Z,1003.05
2022-10-01T07:08:08.051Z,1003.07
2022-10-01T07:09:08.054Z,1003.00
2022-10-01T07:10:08.066Z,1003.01
2022-10-01T07:11:08.028Z,1003.01
2022-10-01T07:12:08.043Z,1002.94
2022-10-01T07:13:08.056Z,1002.93
2022-10-01T07:14:08.000Z,1002.95
2022-10-01T07:15:08.009Z,1002.95
2022-10-01T07:16:08.058Z,1002.95
2022-10-01T07:17:07.982Z,1002.92
2022-10-01T07:18:07.983Z,1002.93
2022-10-01T07:19:07.997Z,1002.91
2022-10-01T07:20:07.933Z,1002.88
2022-10-01T07:21:07.946Z,1002.85
2022-10-01T07:22:07.910Z,1002.85
2022-10-01T07:23:07.903Z,1002.82
2022-10-01T07:24:07.922Z,1002.80
2022-10-01T07:25:07.871Z,1002.77
2022-10-01T07:26:07.866Z,1002.74
2022-10-01T07:27:07.848Z,1002.75
2022-10-01T07:28:07.907Z,1002.75
2022-10-01T07:29:07.850Z,1002.74
2022-10-01T07:30:07.859Z,1002.70
2022-10-01T07:31:07.815Z,1002.70
2022-10-01T07:32:07.842Z,1002.70
2022-10-01T07:33:07.820Z,1002.64
2022-10-01T07:34:07.786Z,1002.66
2022-10-01T07:35:07.781Z,1002.65
2022-10-01T07:36:07.767Z,1002.66
2022-10-01T07:37:07.747Z,1002.64
2022-10-01T07:38:07.755Z,1002.63
2022-10-01T07:39:07.758Z,1002.61
2022-10-01T07:40:07.831Z,1002.60
2022-10-01T07:41:07.727Z,1002.59
2022-10-01T07:42:07.732Z,1002.57
2022-10-01T07:43:07.704Z,1002.52
2022-10-01T07:44:07.690Z,1002.53
2022-10-01T07:45:07.670Z,1002.52
2022-10-01T07:46:07.710Z,1002.50
2022-10-01T07:47:07.663Z,1002.52
2022-10-01T07:48:07.648Z,1002.51
2022-10-01T07:49:07.620Z,1002.52
2022-10-01T07:50:07.685Z,1002.45
2022-10-01T07:51:07.633Z,1002.46
2022-10-01T07:52:12.382Z,1002.43
2022-10-01T07:53:07.620Z,1002.42
2022-10-01T07:54:07.611Z,1002.37
2022-10-01T07:55:07.617Z,1002.34
2022-10-01T07:56:07.631Z,1002.31
2022-10-01T07:57:07.538Z,1002.30
2022-10-01T07:58:07.537Z,1002.27
2022-10-01T07:59:07.539Z,1002.29
2022-10-01T08:00:07.551Z,1002.24
2022-10-01T08:01:07.604Z,1002.26
2022-10-01T08:02:07.534Z,1002.26
2022-10-01T08:03:07.516Z,1002.27
2022-10-01T08:04:07.488Z,1002.23
2022-10-01T08:05:07.460Z,1002.24
2022-10-01T08:06:07.493Z,1002.20
2022-10-01T08:07:07.440Z,1002.16
2022-10-01T08:08:07.494Z,1002.14
2022-10-01T08:09:07.498Z,1002.13
2022-10-01T08:10:07.451Z,1002.12
2022-10-01T08:11:07.400Z,1002.09
2022-10-01T08:12:07.429Z,1002.12
2022-10-01T08:13:07.444Z,1002.09
2022-10-01T08:14:07.387Z,1002.12
2022-10-01T08:15:07.382Z,1002.11
2022-10-01T08:16:07.404Z,1002.09
2022-10-01T08:17:07.346Z,1002.08
2022-10-01T08:18:07.354Z,1002.08
2022-10-01T08:19:07.334Z,1002.05
2022-10-01T08:20:07.317Z,1002.04
2022-10-01T08:21:07.297Z,1002.02
2022-10-01T08:22:07.293Z,1002.00
2022-10-01T08:23:07.283Z,1001.98
2022-10-01T08:24:07.292Z,1001.98
2022-10-01T08:25:07.299Z,1001.96
2022-10-01T08:26:07.306Z,1001.93
2022-10-01T08:27:07.227Z,1001.89
2022-10-01T08:28:07.375Z,1001.92
2022-10-01T08:29:07.210Z,1001.89
2022-10-01T08:30:07.202Z,1001.90
2022-10-01T08:31:07.235Z,1001.85
2022-10-01T08:32:07.258Z,1001.89
2022-10-01T08:33:07.231Z,1001.90
2022-10-01T08:34:07.167Z,1001.90
2022-10-01T08:35:07.173Z,1001.86
2022-10-01T08:36:07.150Z,1001.90
2022-10-01T08:37:07.148Z,1001.91
2022-10-01T08:38:07.193Z,1001.89
2022-10-01T08:39:07.106Z,1001.90
2022-10-01T08:40:07.114Z,1001.89
2022-10-01T08:41:07.102Z,1001.89
2022-10-01T08:42:07.111Z,1001.91
2022-10-01T08:43:07.110Z,1001.89
2022-10-01T08:44:07.100Z,1001.88
2022-10-01T08:45:07.054Z,1001.88
2022-10-01T08:46:07.097Z,1001.84
2022-10-01T08:47:07.021Z,1001.79
2022-10-01T08:48:07.125Z,1001.82
2022-10-01T08:49:07.001Z,1001.84
2022-10-01T08:50:06.997Z,1001.84
2022-10-01T08:51:06.980Z,1001.88
2022-10-01T08:52:06.996Z,1001.83
2022-10-01T08:53:07.001Z,1001.80
2022-10-01T08:54:06.951Z,1001.78
2022-10-01T08:55:06.996Z,1001.79
2022-10-01T08:56:06.932Z,1001.70
2022-10-01T08:57:06.928Z,1001.65
2022-10-01T08:58:06.987Z,1001.67
2022-10-01T08:59:06.911Z,1001.68
2022-10-01T09:00:06.918Z,1001.67
2022-10-01T09:01:06.890Z,1001.67
2022-10-01T09:02:06.920Z,1001.67
2022-10-01T09:03:06.875Z,1001.66
2022-10-01T09:04:06.920Z,1001.61
2022-10-01T09:05:06.833Z,1001.61
2022-10-01T09:06:06.858Z,1001.58
2022-10-01T09:07:06.855Z,1001.55
2022-10-01T09:08:06.823Z,1001.56
2022-10-01T09:09:06.791Z,1001.53
2022-10-01T09:10:06.796Z,1001.53
2022-10-01T09:11:12.786Z,1001.45
2022-10-01T09:12:06.852Z,1001.45
2022-10-01T09:13:06.771Z,1001.46
2022-10-01T09:14:06.805Z,1001.45
2022-10-01T09:15:06.771Z,1001.42
2022-10-01T09:16:06.806Z,1001.39
2022-10-01T09:17:06.769Z,1001.37
2022-10-01T09:18:06.711Z,1001.36
2022-10-01T09:19:06.691Z,1001.33
2022-10-01T09:20:06.689Z,1001.34
2022-10-01T09:21:06.672Z,1001.31
2022-10-01T09:22:06.855Z,1001.31
2022-10-01T09:23:06.652Z,1001.28
2022-10-01T09:24:06.665Z,1001.29
2022-10-01T10:01:09.099Z,1000.85
2022-10-01T10:02:10.195Z,1000.67
2022-10-01T10:03:10.224Z,1000.78
2022-10-01T10:04:19.936Z,1000.71
2022-10-01T10:05:10.059Z,1000.73
2022-10-01T10:06:10.048Z,1000.70
2022-10-01T10:07:10.008Z,1000.66
2022-10-01T10:08:10.009Z,1000.61
2022-10-01T10:09:10.000Z,1000.69
2022-10-01T10:10:09.968Z,1000.64
2022-10-01T10:11:09.975Z,1000.65
2022-10-01T10:12:09.986Z,1000.59
2022-10-01T10:13:09.960Z,1000.58
2022-10-01T10:14:09.928Z,1000.64
2022-10-01T10:15:09.924Z,1000.69
2022-10-01T10:16:09.926Z,1000.55
2022-10-01T10:17:09.909Z,1000.58
2022-10-01T10:18:09.899Z,1000.52
2022-10-01T10:19:10.503Z,1000.53
2022-10-01T10:20:09.863Z,1000.57
2022-10-01T10:21:09.862Z,1000.65
2022-10-01T10:22:09.865Z,1000.65
2022-10-01T10:23:09.857Z,1000.61
2022-10-01T10:24:09.822Z,1000.48
2022-10-01T10:25:09.811Z,1000.39
2022-10-01T10:26:09.809Z,1000.54
2022-10-01T10:27:09.792Z,1000.58
2022-10-01T10:28:09.835Z,1000.65
2022-10-01T10:29:09.815Z,1000.62
2022-10-01T10:30:09.824Z,1000.47
2022-10-01T10:31:09.810Z,1000.48
2022-10-01T10:32:09.743Z,1000.51
2022-10-01T10:33:09.740Z,1000.57
2022-10-01T10:34:09.723Z,1000.56
2022-10-01T10:35:09.735Z,1000.48
2022-10-01T10:36:09.704Z,1000.52
2022-10-01T10:37:09.685Z,1000.50
2022-10-01T10:38:09.708Z,1000.58
2022-10-01T10:39:09.673Z,1000.54
2022-10-01T10:40:09.730Z,1000.45
2022-10-01T10:41:09.693Z,1000.48
2022-10-01T10:42:09.672Z,1000.53
2022-10-01T10:43:09.661Z,1000.44
2022-10-01T10:44:09.618Z,1000.51
2022-10-01T10:45:09.912Z,1000.50
2022-10-01T10:46:09.760Z,1000.45
2022-10-01T10:47:09.600Z,1000.49
2022-10-01T10:48:09.620Z,1000.53
2022-10-01T10:49:09.662Z,1000.41
2022-10-01T10:50:09.754Z,1000.50
2022-10-01T10:51:09.534Z,1000.42
2022-10-01T10:52:09.683Z,1000.45
2022-10-01T10:53:09.599Z,1000.49
2022-10-01T10:54:09.523Z,1000.44
2022-10-01T10:55:09.714Z,1000.51
2022-10-01T10:56:09.491Z,1000.39
2022-10-01T10:57:09.488Z,1000.37
2022-10-01T10:58:09.485Z,1000.35
2022-10-01T10:59:09.587Z,1000.39
2022-10-01T11:00:09.539Z,1000.31
2022-10-01T11:01:09.485Z,1000.33
2022-10-01T11:02:09.503Z,1000.31
2022-10-01T11:03:09.418Z,1000.20
2022-10-01T11:04:09.407Z,1000.24
2022-10-01T11:05:09.442Z,1000.30
2022-10-01T11:06:09.390Z,1000.30
2022-10-01T11:07:09.376Z,1000.31
2022-10-01T11:08:11.960Z,1000.32
2022-10-01T11:09:09.361Z,1000.27
2022-10-01T11:10:09.349Z,1000.36
2022-10-01T11:11:09.510Z,1000.36
2022-10-01T11:12:09.360Z,1000.36
2022-10-01T11:13:09.311Z,1000.29
2022-10-01T11:14:09.390Z,1000.25
2022-10-01T11:15:09.291Z,1000.29
2022-10-01T11:16:09.372Z,1000.32
2022-10-01T11:17:09.277Z,1000.25
2022-10-01T11:18:09.618Z,1000.31
2022-10-01T11:19:09.431Z,1000.23
2022-10-01T11:20:09.240Z,1000.23
2022-10-01T11:21:09.237Z,1000.23
2022-10-01T11:22:09.333Z,1000.26
2022-10-01T11:23:09.218Z,1000.23
2022-10-01T11:24:09.198Z,1000.18
2022-10-01T11:25:09.191Z,1000.18
2022-10-01T11:26:09.174Z,1000.22
2022-10-01T11:27:09.165Z,1000.19
2022-10-01T11:28:09.218Z,1000.19
2022-10-01T11:29:09.138Z,1000.12
2022-10-01T11:30:09.137Z,1000.10
2022-10-01T11:31:09.184Z,1000.09
2022-10-01T11:32:09.113Z,1000.10
2022-10-01T11:33:09.106Z,1000.15
2022-10-01T11:34:09.092Z,1000.04
2022-10-01T11:35:09.145Z,1000.02
2022-10-01T11:36:09.091Z,1000.02
2022-10-01T11:37:09.079Z,1000.09
2022-10-01T11:38:09.060Z,1000.01
2022-10-01T11:39:09.074Z,1000.06
2022-10-01T11:40:09.057Z,1000.01
2022-10-01T11:41:09.063Z,999.96
2022-10-01T11:42:09.039Z,1000.00
2022-10-01T11:43:09.031Z,999.94
2022-10-01T11:44:08.985Z,1000.00
2022-10-01T11:45:08.975Z,999.98
2022-10-01T11:46:09.101Z,999.95
2022-10-01T11:47:09.014Z,999.97
2022-10-01T11:48:08.971Z,999.94
2022-10-01T11:49:08.958Z,1000.00
2022-10-01T11:50:08.967Z,999.97
2022-10-01T11:51:09.077Z,999.94
2022-10-01T11:52:08.973Z,999.96
2022-10-01T11:53:08.919Z,1000.02
2022-10-01T11:54:08.915Z,999.98
2022-10-01T11:55:08.874Z,999.97
2022-10-01T11:56:08.899Z,999.96
2022-10-01T11:57:08.917Z,999.95
2022-10-01T11:58:08.864Z,999.94
2022-10-01T11:59:08.828Z,1000.04
2022-10-01T12:00:08.905Z,1000.01
2022-10-01T12:01:08.831Z,999.99
2022-10-01T12:02:08.832Z,999.94
2022-10-01T12:03:08.801Z,999.92
2022-10-01T12:04:08.831Z,1000.00
2022-10-01T12:05:08.862Z,1000.00
2022-10-01T12:06:08.754Z,999.95
2022-10-01T12:07:08.749Z,999.96
2022-10-01T12:08:08.819Z,999.88
2022-10-01T12:09:08.724Z,999.92
2022-10-01T12:10:08.810Z,999.92
2022-10-01T12:11:08.711Z,999.95
2022-10-01T12:12:08.729Z,999.98
2022-10-01T12:13:08.673Z,999.95
2022-10-01T12:14:08.669Z,999.95
2022-10-01T12:15:08.661Z,999.96
2022-10-01T12:16:08.693Z,999.89
2022-10-01T12:17:08.749Z,999.94
2022-10-01T12:18:08.699Z,999.86
2022-10-01T12:19:08.616Z,999.87
2022-10-01T12:20:09.613Z,999.88
2022-10-01T12:21:08.651Z,999.87
2022-10-01T12:22:08.694Z,999.88
2022-10-01T12:23:08.650Z,999.93
2022-10-01T12:24:08.642Z,999.87
2022-10-01T12:25:08.577Z,999.88
2022-10-01T12:26:08.553Z,999.88
2022-10-01T12:27:08.554Z,999.84
2022-10-01T12:28:08.604Z,999.89
2022-10-01T12:29:08.505Z,999.85
2022-10-01T12:30:08.510Z,999.85
2022-10-01T12:31:08.528Z,999.87
2022-10-01T12:32:08.528Z,999.84
2022-10-01T12:33:08.473Z,999.88
2022-10-01T12:34:08.465Z,999.85
2022-10-01T12:35:08.463Z,999.88
2022-10-01T12:36:08.437Z,999.84
2022-10-01T12:37:08.592Z,999.91
2022-10-01T12:38:08.436Z,999.90
2022-10-01T12:39:08.464Z,999.87
2022-10-01T12:40:08.396Z,999.90
2022-10-01T12:41:08.384Z,999.88
2022-10-01T12:42:08.387Z,999.89
2022-10-01T12:43:08.375Z,999.90